Bow Pilot — S6EN — position and weather

sailwx.info

Track history (hours):
 
Tides and Currents Weather Stations Pressure Air Temp Water Temp Dewpoint Dewpoint Depression Visibility Wind Speed Wind Dir Waves Ship Positions

Bow Pilot

Last reported at 2014-Dec-20 11:29 UTC. Time now 2014-Dec-22 09:15 UTC.
Position N 35°54' W 005°18'.

Length 104 m; draft 7.3 m.

Type: Ship (hazmat cat B). MMSI: 564978000.

Date/timePositionNaut miles runAvg speedWind from/ knotsBaromVisibWave heightAir tempDewpointWater temp
2014-Dec-20 11:29N 35°54' W 005°18'0 0.0
2014-Dec-20 10:32N 35°54' W 005°18'0 0.0
2014-Dec-20 09:32N 35°54' W 005°18'0 0.0
2014-Dec-20 08:32N 35°54' W 005°18'1 1.3
2014-Dec-20 07:34N 35°55' W 005°18'2 1.7
2014-Dec-20 06:34N 35°56' W 005°20'22610.2
2014-Dec-19 08:20N 37°11' W 009°46'  
2014-Dec-15 15:15N 50°37' E 000°28'810.9
2014-Dec-15 14:34N 50°40' E 000°39'3812.1
2014-Dec-15 11:23N 51°04' E 001°27'1012.4
2014-Dec-15 10:34N 51°10' E 001°39'1111.3
2014-Dec-15 09:34N 51°20' E 001°50'1110.6
2014-Dec-15 08:34N 51°29' E 001°57'1210.3
2014-Dec-15 07:23N 51°40' E 002°06'213206.4
2014-Dec-15 06:21N 54°38' W 001°09'191107.1
2014-Dec-15 04:34N 52°09' E 002°13'2612.6
2014-Dec-15 02:30N 52°35' E 002°06'1712.3
2014-Dec-15 01:05N 52°49' E 001°49'714.0
2014-Dec-15 00:33N 52°54' E 001°40'1413.7
2014-Dec-14 23:33N 53°05' E 001°26'6011.8
2014-Dec-14 18:26N 53°55' E 000°30'1010.9
2014-Dec-14 17:33N 54°02' E 000°19'1410.7
2014-Dec-14 16:16N 54°13' E 000°03'810.6
2014-Dec-14 15:33N 54°18' W 000°05'1010.4
2014-Dec-14 14:33N 54°26' W 000°18'1110.7
2014-Dec-14 13:32N 54°33' W 000°31'1111.1
2014-Dec-14 12:33N 54°40' W 000°46'14 9.3
2014-Dec-14 11:05N 54°37' W 001°09'0 0.6
2014-Dec-14 10:25N 54°36' W 001°10'0 0.0
2014-Dec-14 09:28N 54°36' W 001°10'4 1.9
2014-Dec-14 07:29N 54°40' W 001°08'4 0.1
2014-Dec-12 16:30N 54°41' W 001°01'4 4.7
2014-Dec-12 15:33N 54°43' W 000°54'5 5.0
2014-Dec-12 14:33N 54°45' W 000°47'8 7.5
2014-Dec-12 13:33N 54°48' W 000°35'8 7.6
2014-Dec-12 12:33N 54°51' W 000°23'14 4.8
2014-Dec-12 09:33N 54°48' E 000°02'8 7.7
2014-Dec-12 08:33N 54°41' E 000°01'9 9.2
2014-Dec-12 07:33N 54°31' E 000°00'8 8.2
2014-Dec-12 06:33N 54°24' E 000°07'10 9.9
2014-Dec-12 05:33N 54°20' E 000°22'1010.2
2014-Dec-12 04:33N 54°15' E 000°38'176 6.0
2014-Dec-10 23:09N 52°04' E 003°52'5 8.1
2014-Dec-10 22:33N 52°01' E 003°59'1110.7
2014-Dec-10 21:33N 51°56' E 004°14'3 3.0
2014-Dec-10 20:31N 51°53' E 004°17'0 0.0
2014-Dec-10 19:31N 51°53' E 004°17'0 0.0
2014-Dec-10 18:25N 51°53' E 004°17'0 0.0
2014-Dec-10 17:31N 51°53' E 004°17'0 0.0
2014-Dec-10 16:25N 51°53' E 004°17'0 0.0
2014-Dec-10 15:07N 51°53' E 004°17'0 0.0
2014-Dec-10 14:28N 51°53' E 004°17'0 0.0
2014-Dec-10 13:13N 51°53' E 004°17'0 0.0
2014-Dec-10 12:31N 51°53' E 004°17'0 0.0
2014-Dec-10 11:31N 51°53' E 004°17'  
Track history (hours):
 
Tides and Currents Weather Stations Pressure Air Temp Water Temp Dewpoint Dewpoint Depression Visibility Wind Speed Wind Dir Waves Ship Positions

Bow Pilot

Last reported at 2014-Dec-20 11:29 UTC. Time now 2014-Dec-22 09:15 UTC.
Position N 35°54' W 005°18'.

Length 104 m; draft 7.3 m.

Type: Ship (hazmat cat B). MMSI: 564978000.

Date/timePositionNaut miles runAvg speedWind from/ knotsBaromVisibWave heightAir tempDewpointWater temp
2014-Dec-20 11:29N 35°54' W 005°18'0 0.0
2014-Dec-20 10:32N 35°54' W 005°18'0 0.0
2014-Dec-20 09:32N 35°54' W 005°18'0 0.0
2014-Dec-20 08:32N 35°54' W 005°18'1 1.3
2014-Dec-20 07:34N 35°55' W 005°18'2 1.7
2014-Dec-20 06:34N 35°56' W 005°20'22610.2
2014-Dec-19 08:20N 37°11' W 009°46'  
2014-Dec-15 15:15N 50°37' E 000°28'810.9
2014-Dec-15 14:34N 50°40' E 000°39'3812.1
2014-Dec-15 11:23N 51°04' E 001°27'1012.4
2014-Dec-15 10:34N 51°10' E 001°39'1111.3
2014-Dec-15 09:34N 51°20' E 001°50'1110.6
2014-Dec-15 08:34N 51°29' E 001°57'1210.3
2014-Dec-15 07:23N 51°40' E 002°06'213206.4
2014-Dec-15 06:21N 54°38' W 001°09'191107.1
2014-Dec-15 04:34N 52°09' E 002°13'2612.6
2014-Dec-15 02:30N 52°35' E 002°06'1712.3
2014-Dec-15 01:05N 52°49' E 001°49'714.0
2014-Dec-15 00:33N 52°54' E 001°40'1413.7
2014-Dec-14 23:33N 53°05' E 001°26'6011.8
2014-Dec-14 18:26N 53°55' E 000°30'1010.9
2014-Dec-14 17:33N 54°02' E 000°19'1410.7
2014-Dec-14 16:16N 54°13' E 000°03'810.6
2014-Dec-14 15:33N 54°18' W 000°05'1010.4
2014-Dec-14 14:33N 54°26' W 000°18'1110.7
2014-Dec-14 13:32N 54°33' W 000°31'1111.1
2014-Dec-14 12:33N 54°40' W 000°46'14 9.3
2014-Dec-14 11:05N 54°37' W 001°09'0 0.6
2014-Dec-14 10:25N 54°36' W 001°10'0 0.0
2014-Dec-14 09:28N 54°36' W 001°10'4 1.9
2014-Dec-14 07:29N 54°40' W 001°08'4 0.1
2014-Dec-12 16:30N 54°41' W 001°01'4 4.7
2014-Dec-12 15:33N 54°43' W 000°54'5 5.0
2014-Dec-12 14:33N 54°45' W 000°47'8 7.5
2014-Dec-12 13:33N 54°48' W 000°35'8 7.6
2014-Dec-12 12:33N 54°51' W 000°23'14 4.8
2014-Dec-12 09:33N 54°48' E 000°02'8 7.7
2014-Dec-12 08:33N 54°41' E 000°01'9 9.2
2014-Dec-12 07:33N 54°31' E 000°00'8 8.2
2014-Dec-12 06:33N 54°24' E 000°07'10 9.9
2014-Dec-12 05:33N 54°20' E 000°22'1010.2
2014-Dec-12 04:33N 54°15' E 000°38'176 6.0
2014-Dec-10 23:09N 52°04' E 003°52'5 8.1
2014-Dec-10 22:33N 52°01' E 003°59'1110.7
2014-Dec-10 21:33N 51°56' E 004°14'3 3.0
2014-Dec-10 20:31N 51°53' E 004°17'0 0.0
2014-Dec-10 19:31N 51°53' E 004°17'0 0.0
2014-Dec-10 18:25N 51°53' E 004°17'0 0.0
2014-Dec-10 17:31N 51°53' E 004°17'0 0.0
2014-Dec-10 16:25N 51°53' E 004°17'0 0.0
2014-Dec-10 15:07N 51°53' E 004°17'0 0.0
2014-Dec-10 14:28N 51°53' E 004°17'0 0.0
2014-Dec-10 13:13N 51°53' E 004°17'0 0.0
2014-Dec-10 12:31N 51°53' E 004°17'0 0.0
2014-Dec-10 11:31N 51°53' E 004°17'  

Dump ship's entire track history